sensor_id;sensor_type;location;lat;lon;timestamp;pressure;altitude;pressure_sealevel;temperature;humidity
56198;BME280;42700;42.524;12.052;2023-05-15T00:00:59;94053.69;;;13.07;100.00
56198;BME280;42700;42.524;12.052;2023-05-15T00:03:25;95277.69;;;13.59;100.00
56198;BME280;42700;42.524;12.052;2023-05-15T00:05:51;95475.16;;;13.74;100.00
56198;BME280;42700;42.524;12.052;2023-05-15T00:08:16;94667.69;;;13.45;100.00
56198;BME280;42700;42.524;12.052;2023-05-15T00:10:42;94381.72;;;13.29;100.00
56198;BME280;42700;42.524;12.052;2023-05-15T00:13:07;94398.50;;;13.30;100.00
56198;BME280;42700;42.524;12.052;2023-05-15T00:15:33;94210.47;;;13.19;100.00
56198;BME280;42700;42.524;12.052;2023-05-15T00:17:58;94309.03;;;13.19;100.00
56198;BME280;42700;42.524;12.052;2023-05-15T00:20:23;94324.50;;;13.17;100.00
56198;BME280;42700;42.524;12.052;2023-05-15T00:22:49;94213.72;;;13.10;100.00
56198;BME280;42700;42.524;12.052;2023-05-15T00:25:14;94241.97;;;13.11;100.00
56198;BME280;42700;42.524;12.052;2023-05-15T00:27:40;94718.00;;;13.26;100.00
56198;BME280;42700;42.524;12.052;2023-05-15T00:30:06;95275.53;;;13.56;100.00
56198;BME280;42700;42.524;12.052;2023-05-15T00:32:31;94897.97;;;13.44;100.00
56198;BME280;42700;42.524;12.052;2023-05-15T00:34:57;94382.56;;;13.20;100.00
56198;BME280;42700;42.524;12.052;2023-05-15T00:37:22;94357.00;;;13.19;100.00
56198;BME280;42700;42.524;12.052;2023-05-15T00:39:48;94376.47;;;13.19;100.00
56198;BME280;42700;42.524;12.052;2023-05-15T00:42:13;94336.75;;;13.18;100.00
56198;BME280;42700;42.524;12.052;2023-05-15T00:44:39;94338.91;;;13.16;100.00
56198;BME280;42700;42.524;12.052;2023-05-15T00:47:05;94374.06;;;13.18;100.00
56198;BME280;42700;42.524;12.052;2023-05-15T00:49:31;94434.25;;;13.19;100.00
56198;BME280;42700;42.524;12.052;2023-05-15T00:51:59;94499.00;;;13.19;100.00
56198;BME280;42700;42.524;12.052;2023-05-15T00:54:27;94534.44;;;13.20;100.00
56198;BME280;42700;42.524;12.052;2023-05-15T00:56:55;94694.28;;;13.25;100.00
56198;BME280;42700;42.524;12.052;2023-05-15T00:59:21;94691.88;;;13.23;100.00
56198;BME280;42700;42.524;12.052;2023-05-15T01:01:48;94700.97;;;13.22;100.00
56198;BME280;42700;42.524;12.052;2023-05-15T01:04:14;94250.03;;;13.01;100.00
56198;BME280;42700;42.524;12.052;2023-05-15T01:06:39;93575.19;;;12.69;100.00
56198;BME280;42700;42.524;12.052;2023-05-15T01:09:05;93777.91;;;12.77;100.00
56198;BME280;42700;42.524;12.052;2023-05-15T01:11:32;93703.16;;;12.73;100.00
56198;BME280;42700;42.524;12.052;2023-05-15T01:14:04;94391.72;;;12.98;100.00
56198;BME280;42700;42.524;12.052;2023-05-15T01:16:30;94666.84;;;13.14;100.00
56198;BME280;42700;42.524;12.052;2023-05-15T01:18:56;94917.59;;;13.28;100.00
56198;BME280;42700;42.524;12.052;2023-05-15T01:31:48;94979.00;;;13.48;100.00
56198;BME280;42700;42.524;12.052;2023-05-15T01:34:14;95037.66;;;13.54;100.00
56198;BME280;42700;42.524;12.052;2023-05-15T01:36:55;95024.91;;;13.56;100.00
56198;BME280;42700;42.524;12.052;2023-05-15T01:39:20;95017.97;;;13.60;100.00
56198;BME280;42700;42.524;12.052;2023-05-15T01:41:52;95057.44;;;13.63;100.00
56198;BME280;42700;42.524;12.052;2023-05-15T01:44:25;95000.41;;;13.64;100.00
56198;BME280;42700;42.524;12.052;2023-05-15T01:46:54;94903.84;;;13.62;100.00
56198;BME280;42700;42.524;12.052;2023-05-15T01:49:22;94892.13;;;13.63;100.00
56198;BME280;42700;42.524;12.052;2023-05-15T01:51:50;94740.16;;;13.58;100.00
56198;BME280;42700;42.524;12.052;2023-05-15T01:54:17;94596.22;;;13.53;100.00
56198;BME280;42700;42.524;12.052;2023-05-15T01:56:43;94473.63;;;13.47;100.00
56198;BME280;42700;42.524;12.052;2023-05-15T01:59:10;94218.91;;;13.36;100.00
56198;BME280;42700;42.524;12.052;2023-05-15T02:01:37;94169.34;;;13.35;100.00
56198;BME280;42700;42.524;12.052;2023-05-15T02:04:04;94009.50;;;13.30;100.00
56198;BME280;42700;42.524;12.052;2023-05-15T02:06:31;93938.66;;;13.29;100.00
56198;BME280;42700;42.524;12.052;2023-05-15T02:09:00;93661.44;;;13.20;100.00
56198;BME280;42700;42.524;12.052;2023-05-15T02:11:26;93461.28;;;13.13;100.00
56198;BME280;42700;42.524;12.052;2023-05-15T02:13:52;93289.06;;;13.08;100.00
56198;BME280;42700;42.524;12.052;2023-05-15T02:16:19;93106.03;;;13.00;100.00
56198;BME280;42700;42.524;12.052;2023-05-15T02:18:44;92953.81;;;12.98;100.00
56198;BME280;42700;42.524;12.052;2023-05-15T02:21:10;92986.69;;;13.02;100.00
56198;BME280;42700;42.524;12.052;2023-05-15T02:23:36;93126.31;;;13.10;100.00
56198;BME280;42700;42.524;12.052;2023-05-15T02:31:17;93071.69;;;13.13;100.00
56198;BME280;42700;42.524;12.052;2023-05-15T02:33:48;91794.34;;;12.60;100.00
56198;BME280;42700;42.524;12.052;2023-05-15T02:36:19;91603.31;;;12.50;100.00
56198;BME280;42700;42.524;12.052;2023-05-15T02:38:47;91519.22;;;12.45;100.00
56198;BME280;42700;42.524;12.052;2023-05-15T02:41:14;91535.50;;;12.44;100.00
56198;BME280;42700;42.524;12.052;2023-05-15T02:43:39;91505.81;;;12.42;100.00
56198;BME280;42700;42.524;12.052;2023-05-15T02:46:06;91582.59;;;12.43;100.00
56198;BME280;42700;42.524;12.052;2023-05-15T02:48:33;92065.00;;;12.63;100.00
56198;BME280;42700;42.524;12.052;2023-05-15T02:51:00;92435.22;;;12.83;100.00
56198;BME280;42700;42.524;12.052;2023-05-15T02:53:25;92648.44;;;12.90;100.00
56198;BME280;42700;42.524;12.052;2023-05-15T02:55:51;92712.31;;;12.90;100.00
56198;BME280;42700;42.524;12.052;2023-05-15T02:58:16;92817.22;;;12.89;100.00
56198;BME280;42700;42.524;12.052;2023-05-15T03:00:42;92986.97;;;12.92;100.00
56198;BME280;42700;42.524;12.052;2023-05-15T03:03:07;93212.06;;;12.98;100.00
56198;BME280;42700;42.524;12.052;2023-05-15T03:05:33;93436.09;;;13.05;100.00
56198;BME280;42700;42.524;12.052;2023-05-15T03:07:59;93183.19;;;12.91;100.00
56198;BME280;42700;42.524;12.052;2023-05-15T03:10:25;93195.81;;;12.86;100.00
56198;BME280;42700;42.524;12.052;2023-05-15T03:12:53;93302.28;;;12.86;100.00
56198;BME280;42700;42.524;12.052;2023-05-15T03:15:19;93479.00;;;12.90;100.00
56198;BME280;42700;42.524;12.052;2023-05-15T03:17:45;93839.91;;;13.01;100.00
56198;BME280;42700;42.524;12.052;2023-05-15T03:20:10;93639.72;;;12.94;100.00
56198;BME280;42700;42.524;12.052;2023-05-15T03:22:39;93470.31;;;12.84;100.00
56198;BME280;42700;42.524;12.052;2023-05-15T03:25:05;93851.09;;;12.98;100.00
56198;BME280;42700;42.524;12.052;2023-05-15T03:27:31;93772.88;;;12.94;100.00
56198;BME280;42700;42.524;12.052;2023-05-15T03:29:56;94095.78;;;13.05;100.00
56198;BME280;42700;42.524;12.052;2023-05-15T03:32:22;94120.53;;;13.05;100.00
56198;BME280;42700;42.524;12.052;2023-05-15T03:34:47;94245.44;;;13.07;100.00
56198;BME280;42700;42.524;12.052;2023-05-15T03:37:13;94224.41;;;13.05;100.00
56198;BME280;42700;42.524;12.052;2023-05-15T03:39:38;94513.13;;;13.15;100.00
56198;BME280;42700;42.524;12.052;2023-05-15T03:42:04;94627.16;;;13.18;100.00
56198;BME280;42700;42.524;12.052;2023-05-15T03:44:29;94746.53;;;13.21;100.00
56198;BME280;42700;42.524;12.052;2023-05-15T03:46:55;95006.91;;;13.31;100.00
56198;BME280;42700;42.524;12.052;2023-05-15T03:49:20;94870.16;;;13.25;100.00
56198;BME280;42700;42.524;12.052;2023-05-15T03:51:45;94973.56;;;13.28;100.00
56198;BME280;42700;42.524;12.052;2023-05-15T03:54:11;95130.28;;;13.31;100.00
56198;BME280;42700;42.524;12.052;2023-05-15T03:56:36;94974.09;;;13.25;100.00
56198;BME280;42700;42.524;12.052;2023-05-15T03:59:02;94907.97;;;13.22;100.00
56198;BME280;42700;42.524;12.052;2023-05-15T04:01:28;94875.72;;;13.18;100.00
56198;BME280;42700;42.524;12.052;2023-05-15T04:03:53;94764.63;;;13.14;100.00
56198;BME280;42700;42.524;12.052;2023-05-15T04:06:19;95191.03;;;13.29;100.00
56198;BME280;42700;42.524;12.052;2023-05-15T04:08:44;95249.19;;;13.32;100.00
56198;BME280;42700;42.524;12.052;2023-05-15T04:11:10;95360.91;;;13.39;100.00
56198;BME280;42700;42.524;12.052;2023-05-15T04:13:36;95506.78;;;13.43;100.00
56198;BME280;42700;42.524;12.052;2023-05-15T04:16:02;95670.63;;;13.53;100.00
56198;BME280;42700;42.524;12.052;2023-05-15T04:18:28;95524.16;;;13.46;100.00
56198;BME280;42700;42.524;12.052;2023-05-15T04:20:54;95794.41;;;13.57;100.00
56198;BME280;42700;42.524;12.052;2023-05-15T04:23:20;95484.97;;;13.46;100.00
56198;BME280;42700;42.524;12.052;2023-05-15T04:25:45;95277.50;;;13.38;100.00
56198;BME280;42700;42.524;12.052;2023-05-15T04:28:14;95741.06;;;13.57;100.00
56198;BME280;42700;42.524;12.052;2023-05-15T04:30:41;96064.09;;;13.72;100.00
56198;BME280;42700;42.524;12.052;2023-05-15T04:33:06;96084.94;;;13.75;100.00
56198;BME280;42700;42.524;12.052;2023-05-15T04:35:32;96315.41;;;13.86;100.00
56198;BME280;42700;42.524;12.052;2023-05-15T04:37:57;96192.34;;;13.82;100.00
56198;BME280;42700;42.524;12.052;2023-05-15T04:40:22;96149.09;;;13.80;100.00
56198;BME280;42700;42.524;12.052;2023-05-15T04:42:48;96187.81;;;13.83;100.00
56198;BME280;42700;42.524;12.052;2023-05-15T04:45:14;96471.28;;;13.97;100.00
56198;BME280;42700;42.524;12.052;2023-05-15T04:47:40;96517.78;;;14.01;100.00
56198;BME280;42700;42.524;12.052;2023-05-15T04:50:05;96458.06;;;14.02;100.00
56198;BME280;42700;42.524;12.052;2023-05-15T04:52:31;96552.41;;;14.08;100.00
56198;BME280;42700;42.524;12.052;2023-05-15T04:54:57;96396.22;;;14.05;100.00
56198;BME280;42700;42.524;12.052;2023-05-15T04:57:22;96363.13;;;14.06;100.00
56198;BME280;42700;42.524;12.052;2023-05-15T04:59:49;96535.25;;;14.15;100.00
56198;BME280;42700;42.524;12.052;2023-05-15T05:02:15;96925.09;;;14.34;100.00
56198;BME280;42700;42.524;12.052;2023-05-15T05:04:43;96887.69;;;14.34;100.00
56198;BME280;42700;42.524;12.052;2023-05-15T05:07:10;97025.28;;;14.43;100.00
56198;BME280;42700;42.524;12.052;2023-05-15T05:09:37;97455.97;;;14.65;100.00
56198;BME280;42700;42.524;12.052;2023-05-15T05:12:02;97654.34;;;14.81;100.00
56198;BME280;42700;42.524;12.052;2023-05-15T05:14:28;97855.72;;;14.94;100.00
56198;BME280;42700;42.524;12.052;2023-05-15T05:16:53;97812.09;;;15.01;100.00
56198;BME280;42700;42.524;12.052;2023-05-15T05:19:19;98082.94;;;15.16;100.00
56198;BME280;42700;42.524;12.052;2023-05-15T05:21:44;97917.09;;;15.16;100.00
56198;BME280;42700;42.524;12.052;2023-05-15T05:24:10;98133.19;;;15.27;100.00
56198;BME280;42700;42.524;12.052;2023-05-15T05:26:35;98151.75;;;15.36;100.00
56198;BME280;42700;42.524;12.052;2023-05-15T05:29:01;98230.06;;;15.44;100.00
56198;BME280;42700;42.524;12.052;2023-05-15T05:31:26;98391.97;;;15.55;100.00
56198;BME280;42700;42.524;12.052;2023-05-15T05:33:52;98336.66;;;15.62;100.00
56198;BME280;42700;42.524;12.052;2023-05-15T05:36:17;98782.84;;;15.85;100.00
56198;BME280;42700;42.524;12.052;2023-05-15T05:38:43;98688.00;;;15.94;100.00
56198;BME280;42700;42.524;12.052;2023-05-15T05:41:08;98919.56;;;16.07;100.00
56198;BME280;42700;42.524;12.052;2023-05-15T05:43:33;98144.03;;;15.82;100.00
56198;BME280;42700;42.524;12.052;2023-05-15T05:45:59;98156.19;;;15.85;100.00
56198;BME280;42700;42.524;12.052;2023-05-15T05:48:24;98564.28;;;16.05;100.00
56198;BME280;42700;42.524;12.052;2023-05-15T05:50:50;98400.28;;;16.10;100.00
56198;BME280;42700;42.524;12.052;2023-05-15T05:53:16;99176.53;;;16.48;100.00
56198;BME280;42700;42.524;12.052;2023-05-15T05:55:41;98492.75;;;16.28;100.00
56198;BME280;42700;42.524;12.052;2023-05-15T05:58:07;98647.88;;;16.37;100.00
56198;BME280;42700;42.524;12.052;2023-05-15T06:00:32;98237.97;;;16.29;100.00
56198;BME280;42700;42.524;12.052;2023-05-15T06:02:58;98367.28;;;16.38;100.00
56198;BME280;42700;42.524;12.052;2023-05-15T06:05:24;98983.97;;;16.66;100.00
56198;BME280;42700;42.524;12.052;2023-05-15T06:07:50;98454.22;;;16.57;100.00
56198;BME280;42700;42.524;12.052;2023-05-15T06:10:16;98863.38;;;16.88;100.00
56198;BME280;42700;42.524;12.052;2023-05-15T06:12:42;98133.72;;;16.61;100.00
56198;BME280;42700;42.524;12.052;2023-05-15T06:15:08;98249.69;;;16.76;100.00
56198;BME280;42700;42.524;12.052;2023-05-15T06:17:34;97829.59;;;16.57;100.00
56198;BME280;42700;42.524;12.052;2023-05-15T06:19:59;97676.13;;;16.61;100.00
56198;BME280;42700;42.524;12.052;2023-05-15T06:22:25;97542.50;;;16.65;100.00
56198;BME280;42700;42.524;12.052;2023-05-15T06:24:51;98072.50;;;16.85;100.00
56198;BME280;42700;42.524;12.052;2023-05-15T06:27:16;98629.78;;;17.18;100.00
56198;BME280;42700;42.524;12.052;2023-05-15T06:29:42;99119.66;;;17.43;100.00
56198;BME280;42700;42.524;12.052;2023-05-15T06:32:07;98522.94;;;17.28;100.00
56198;BME280;42700;42.524;12.052;2023-05-15T06:34:32;98713.66;;;17.48;100.00
56198;BME280;42700;42.524;12.052;2023-05-15T06:36:58;97086.28;;;16.99;100.00
56198;BME280;42700;42.524;12.052;2023-05-15T06:39:24;98771.56;;;17.64;100.00
56198;BME280;42700;42.524;12.052;2023-05-15T06:41:49;97178.63;;;17.14;100.00
56198;BME280;42700;42.524;12.052;2023-05-15T06:44:15;98310.91;;;17.55;100.00
56198;BME280;42700;42.524;12.052;2023-05-15T06:46:40;98398.28;;;17.64;100.00
56198;BME280;42700;42.524;12.052;2023-05-15T06:49:06;98988.22;;;17.93;100.00
56198;BME280;42700;42.524;12.052;2023-05-15T06:51:31;99551.16;;;18.20;100.00
56198;BME280;42700;42.524;12.052;2023-05-15T06:53:57;98904.44;;;18.11;100.00
56198;BME280;42700;42.524;12.052;2023-05-15T06:56:22;97636.44;;;17.71;100.00
56198;BME280;42700;42.524;12.052;2023-05-15T06:58:48;97873.50;;;17.78;100.00
56198;BME280;42700;42.524;12.052;2023-05-15T07:01:13;98293.97;;;18.01;100.00
56198;BME280;42700;42.524;12.052;2023-05-15T07:03:39;97568.03;;;17.74;100.00
56198;BME280;42700;42.524;12.052;2023-05-15T07:06:04;98687.56;;;18.18;100.00
56198;BME280;42700;42.524;12.052;2023-05-15T07:08:30;98945.81;;;18.45;100.00
56198;BME280;42700;42.524;12.052;2023-05-15T07:10:55;99098.34;;;18.51;100.00
56198;BME280;42700;42.524;12.052;2023-05-15T07:13:21;98318.69;;;18.30;100.00
56198;BME280;42700;42.524;12.052;2023-05-15T07:15:46;98509.75;;;18.41;100.00
56198;BME280;42700;42.524;12.052;2023-05-15T07:18:12;99300.09;;;18.73;100.00
56198;BME280;42700;42.524;12.052;2023-05-15T07:20:37;99450.16;;;18.86;100.00
56198;BME280;42700;42.524;12.052;2023-05-15T07:23:03;98627.28;;;18.61;100.00
56198;BME280;42700;42.524;12.052;2023-05-15T07:25:29;99013.72;;;18.82;100.00
56198;BME280;42700;42.524;12.052;2023-05-15T07:27:54;98627.47;;;18.73;100.00
56198;BME280;42700;42.524;12.052;2023-05-15T07:30:20;97869.34;;;18.51;100.00
56198;BME280;42700;42.524;12.052;2023-05-15T07:32:46;98793.72;;;18.84;100.00
56198;BME280;42700;42.524;12.052;2023-05-15T07:35:11;98947.97;;;18.91;100.00
56198;BME280;42700;42.524;12.052;2023-05-15T07:37:37;98805.72;;;18.88;100.00
56198;BME280;42700;42.524;12.052;2023-05-15T07:40:02;99164.41;;;19.04;100.00
56198;BME280;42700;42.524;12.052;2023-05-15T07:42:28;98353.28;;;18.85;100.00
56198;BME280;42700;42.524;12.052;2023-05-15T07:44:54;100600.66;;;19.60;100.00
56198;BME280;42700;42.524;12.052;2023-05-15T07:47:19;99885.78;;;19.43;100.00
56198;BME280;42700;42.524;12.052;2023-05-15T07:49:45;100297.78;;;19.61;100.00
56198;BME280;42700;42.524;12.052;2023-05-15T07:52:10;100290.69;;;19.68;100.00
56198;BME280;42700;42.524;12.052;2023-05-15T07:54:36;99182.66;;;19.36;100.00
56198;BME280;42700;42.524;12.052;2023-05-15T07:57:03;99308.06;;;19.46;100.00
56198;BME280;42700;42.524;12.052;2023-05-15T07:59:29;100623.31;;;19.92;100.00
56198;BME280;42700;42.524;12.052;2023-05-15T08:01:55;100111.09;;;19.76;100.00
56198;BME280;42700;42.524;12.052;2023-05-15T08:04:21;99446.09;;;19.48;100.00
56198;BME280;42700;42.524;12.052;2023-05-15T08:06:46;98665.81;;;19.28;100.00
56198;BME280;42700;42.524;12.052;2023-05-15T08:09:12;99599.53;;;19.56;100.00
56198;BME280;42700;42.524;12.052;2023-05-15T08:11:38;98781.19;;;19.31;100.00
56198;BME280;42700;42.524;12.052;2023-05-15T08:14:03;100308.53;;;19.78;100.00
56198;BME280;42700;42.524;12.052;2023-05-15T08:16:28;98516.69;;;19.23;100.00
56198;BME280;42700;42.524;12.052;2023-05-15T08:18:54;98672.81;;;19.29;100.00
56198;BME280;42700;42.524;12.052;2023-05-15T08:21:25;99389.13;;;19.51;100.00
56198;BME280;42700;42.524;12.052;2023-05-15T08:23:52;99672.59;;;19.61;100.00
56198;BME280;42700;42.524;12.052;2023-05-15T08:26:17;102100.47;;;20.43;100.00
56198;BME280;42700;42.524;12.052;2023-05-15T08:28:43;101645.28;;;20.42;100.00
56198;BME280;42700;42.524;12.052;2023-05-15T08:31:08;102025.78;;;20.54;100.00
56198;BME280;42700;42.524;12.052;2023-05-15T08:33:34;100669.19;;;20.17;100.00
56198;BME280;42700;42.524;12.052;2023-05-15T08:35:59;102769.69;;;20.83;100.00
56198;BME280;42700;42.524;12.052;2023-05-15T08:38:25;102057.13;;;20.66;100.00
56198;BME280;42700;42.524;12.052;2023-05-15T08:40:51;102996.59;;;20.96;100.00
56198;BME280;42700;42.524;12.052;2023-05-15T08:43:17;101455.41;;;20.52;100.00
56198;BME280;42700;42.524;12.052;2023-05-15T08:45:43;103290.34;;;21.09;100.00
56198;BME280;42700;42.524;12.052;2023-05-15T08:48:10;102531.81;;;20.85;100.00
56198;BME280;42700;42.524;12.052;2023-05-15T08:50:37;101228.56;;;20.43;100.00
56198;BME280;42700;42.524;12.052;2023-05-15T08:53:02;101723.66;;;20.60;100.00
56198;BME280;42700;42.524;12.052;2023-05-15T08:55:28;100616.78;;;20.27;100.00
56198;BME280;42700;42.524;12.052;2023-05-15T08:57:54;101710.31;;;20.59;100.00
56198;BME280;42700;42.524;12.052;2023-05-15T09:00:20;100468.56;;;20.26;100.00
56198;BME280;42700;42.524;12.052;2023-05-15T09:02:46;101991.03;;;20.70;100.00
56198;BME280;42700;42.524;12.052;2023-05-15T09:05:12;100473.63;;;20.29;100.00
56198;BME280;42700;42.524;12.052;2023-05-15T09:07:38;99445.06;;;19.92;100.00
56198;BME280;42700;42.524;12.052;2023-05-15T09:10:05;100823.66;;;20.27;100.00
56198;BME280;42700;42.524;12.052;2023-05-15T09:12:33;99145.81;;;19.79;100.00
56198;BME280;42700;42.524;12.052;2023-05-15T09:15:13;99494.38;;;19.86;100.00
56198;BME280;42700;42.524;12.052;2023-05-15T09:17:41;101383.59;;;20.41;100.00
56198;BME280;42700;42.524;12.052;2023-05-15T09:20:29;98468.69;;;19.58;100.00
56198;BME280;42700;42.524;12.052;2023-05-15T09:22:56;101739.56;;;20.54;100.00
56198;BME280;42700;42.524;12.052;2023-05-15T09:25:32;102420.22;;;20.73;100.00
56198;BME280;42700;42.524;12.052;2023-05-15T09:27:59;103560.78;;;21.07;100.00
56198;BME280;42700;42.524;12.052;2023-05-15T09:30:28;103068.94;;;20.93;100.00
56198;BME280;42700;42.524;12.052;2023-05-15T09:32:57;100421.03;;;20.17;100.00
56198;BME280;42700;42.524;12.052;2023-05-15T09:35:27;102129.09;;;20.67;100.00
56198;BME280;42700;42.524;12.052;2023-05-15T09:37:57;103239.50;;;21.01;100.00
56198;BME280;42700;42.524;12.052;2023-05-15T09:40:25;102928.19;;;20.96;100.00
56198;BME280;42700;42.524;12.052;2023-05-15T09:42:52;103416.28;;;21.11;100.00
56198;BME280;42700;42.524;12.052;2023-05-15T09:45:18;103229.97;;;21.08;100.00
56198;BME280;42700;42.524;12.052;2023-05-15T09:47:44;103462.91;;;21.15;100.00
56198;BME280;42700;42.524;12.052;2023-05-15T09:50:10;102284.41;;;20.82;100.00
56198;BME280;42700;42.524;12.052;2023-05-15T09:52:36;104235.09;;;21.35;100.00
56198;BME280;42700;42.524;12.052;2023-05-15T09:55:01;102860.50;;;20.97;100.00
56198;BME280;42700;42.524;12.052;2023-05-15T09:57:26;104951.00;;;21.56;100.00
56198;BME280;42700;42.524;12.052;2023-05-15T09:59:52;100923.25;;;20.46;100.00
56198;BME280;42700;42.524;12.052;2023-05-15T10:02:26;103087.31;;;21.00;100.00
56198;BME280;42700;42.524;12.052;2023-05-15T10:04:56;103944.09;;;21.31;100.00
56198;BME280;42700;42.524;12.052;2023-05-15T10:09:53;105014.50;;;21.68;100.00
56198;BME280;42700;42.524;12.052;2023-05-15T10:12:19;104409.03;;;21.53;100.00
56198;BME280;42700;42.524;12.052;2023-05-15T10:14:44;102377.19;;;20.93;100.00
56198;BME280;42700;42.524;12.052;2023-05-15T10:17:10;103037.94;;;21.10;100.00
56198;BME280;42700;42.524;12.052;2023-05-15T10:19:37;103261.75;;;21.17;100.00
56198;BME280;42700;42.524;12.052;2023-05-15T10:22:03;102427.53;;;20.94;100.00
56198;BME280;42700;42.524;12.052;2023-05-15T10:24:29;102983.25;;;21.06;100.00
56198;BME280;42700;42.524;12.052;2023-05-15T10:26:55;104177.81;;;21.43;100.00
56198;BME280;42700;42.524;12.052;2023-05-15T10:29:21;104756.78;;;21.62;100.00
56198;BME280;42700;42.524;12.052;2023-05-15T10:31:49;104784.50;;;21.67;100.00
56198;BME280;42700;42.524;12.052;2023-05-15T10:34:16;105080.19;;;21.72;100.00
56198;BME280;42700;42.524;12.052;2023-05-15T10:36:42;104098.50;;;21.42;100.00
56198;BME280;42700;42.524;12.052;2023-05-15T10:39:09;105808.88;;;21.86;100.00
56198;BME280;42700;42.524;12.052;2023-05-15T10:41:35;103437.84;;;21.26;100.00
56198;BME280;42700;42.524;12.052;2023-05-15T10:44:01;106411.25;;;22.12;100.00
56198;BME280;42700;42.524;12.052;2023-05-15T10:46:28;107263.56;;;22.44;100.00
56198;BME280;42700;42.524;12.052;2023-05-15T10:48:54;106736.03;;;22.30;100.00
56198;BME280;42700;42.524;12.052;2023-05-15T10:51:26;107539.06;;;22.62;100.00
56198;BME280;42700;42.524;12.052;2023-05-15T10:53:52;106698.81;;;22.39;100.00
56198;BME280;42700;42.524;12.052;2023-05-15T10:56:18;106966.97;;;22.51;100.00
56198;BME280;42700;42.524;12.052;2023-05-15T10:58:46;107138.53;;;22.62;100.00
56198;BME280;42700;42.524;12.052;2023-05-15T11:01:26;107128.59;;;22.61;100.00
56198;BME280;42700;42.524;12.052;2023-05-15T11:06:31;107519.94;;;22.73;100.00
56198;BME280;42700;42.524;12.052;2023-05-15T11:14:17;106459.88;;;22.53;100.00
56198;BME280;42700;42.524;12.052;2023-05-15T11:19:23;105344.25;;;22.22;100.00
56198;BME280;42700;42.524;12.052;2023-05-15T11:24:32;106237.91;;;22.40;100.00
56198;BME280;42700;42.524;12.052;2023-05-15T11:27:01;109342.56;;;23.33;100.00
56198;BME280;42700;42.524;12.052;2023-05-15T11:29:27;107227.78;;;22.76;100.00
56198;BME280;42700;42.524;12.052;2023-05-15T11:31:53;107367.09;;;22.72;100.00
56198;BME280;42700;42.524;12.052;2023-05-15T11:34:28;109489.28;;;23.33;100.00
56198;BME280;42700;42.524;12.052;2023-05-15T11:36:54;111763.19;;;24.09;100.00
56198;BME280;42700;42.524;12.052;2023-05-15T11:39:22;110330.97;;;23.75;100.00
56198;BME280;42700;42.524;12.052;2023-05-15T11:41:47;112872.53;;;24.47;100.00
56198;BME280;42700;42.524;12.052;2023-05-15T11:44:18;108496.84;;;23.28;100.00
56198;BME280;42700;42.524;12.052;2023-05-15T11:46:44;108667.97;;;23.33;100.00
56198;BME280;42700;42.524;12.052;2023-05-15T11:49:10;111621.22;;;24.20;100.00
56198;BME280;42700;42.524;12.052;2023-05-15T11:51:35;108799.31;;;23.46;100.00
56198;BME280;42700;42.524;12.052;2023-05-15T11:54:07;110779.53;;;23.98;100.00
56198;BME280;42700;42.524;12.052;2023-05-15T11:56:34;111625.25;;;24.29;100.00
56198;BME280;42700;42.524;12.052;2023-05-15T11:59:00;112498.06;;;24.56;100.00
56198;BME280;42700;42.524;12.052;2023-05-15T12:01:26;113043.25;;;24.75;100.00
56198;BME280;42700;42.524;12.052;2023-05-15T12:03:54;113974.97;;;25.16;100.00
56198;BME280;42700;42.524;12.052;2023-05-15T12:06:19;114510.22;;;25.45;100.00
56198;BME280;42700;42.524;12.052;2023-05-15T12:08:49;113912.13;;;25.27;100.00
56198;BME280;42700;42.524;12.052;2023-05-15T12:11:16;114092.56;;;25.43;100.00
56198;BME280;42700;42.524;12.052;2023-05-15T12:13:41;109791.50;;;24.18;100.00
56198;BME280;42700;42.524;12.052;2023-05-15T12:16:07;108848.31;;;23.76;100.00
56198;BME280;42700;42.524;12.052;2023-05-15T12:18:32;110460.72;;;24.11;100.00
56198;BME280;42700;42.524;12.052;2023-05-15T12:20:58;110208.59;;;24.12;100.00
56198;BME280;42700;42.524;12.052;2023-05-15T12:23:24;109595.34;;;23.96;100.00
56198;BME280;42700;42.524;12.052;2023-05-15T12:25:58;108924.47;;;23.80;100.00
56198;BME280;42700;42.524;12.052;2023-05-15T12:28:25;111098.31;;;24.36;100.00
56198;BME280;42700;42.524;12.052;2023-05-15T12:30:51;109446.78;;;24.04;100.00
56198;BME280;42700;42.524;12.052;2023-05-15T12:33:17;111638.53;;;24.62;100.00
56198;BME280;42700;42.524;12.052;2023-05-15T12:35:44;113569.41;;;25.15;100.00
56198;BME280;42700;42.524;12.052;2023-05-15T12:38:14;111514.91;;;24.59;100.00
56198;BME280;42700;42.524;12.052;2023-05-15T12:40:41;111772.94;;;24.63;100.00
56198;BME280;42700;42.524;12.052;2023-05-15T12:43:09;111258.91;;;24.59;100.00
56198;BME280;42700;42.524;12.052;2023-05-15T12:45:36;111284.41;;;24.61;100.00
56198;BME280;42700;42.524;12.052;2023-05-15T12:48:02;111028.63;;;24.67;100.00
56198;BME280;42700;42.524;12.052;2023-05-15T12:50:30;112904.00;;;25.15;100.00
56198;BME280;42700;42.524;12.052;2023-05-15T12:52:56;112803.47;;;25.21;100.00
56198;BME280;42700;42.524;12.052;2023-05-15T12:57:48;113147.88;;;25.34;100.00
56198;BME280;42700;42.524;12.052;2023-05-15T13:00:14;111692.19;;;25.07;100.00
56198;BME280;42700;42.524;12.052;2023-05-15T13:02:43;110757.38;;;24.74;100.00
56198;BME280;42700;42.524;12.052;2023-05-15T13:05:09;110954.59;;;24.80;100.00